Time;durP1;ratioP1;P1;durP2;ratioP2;P2;SDS_P1;SDS_P2;PMS_P1;PMS_P2;Temp;Humidity;BMP_temperature;BMP_pressure;BME280_temperature;BME280_humidity;BME280_pressure;Samples;Min_cycle;Max_cycle;Signal;HPM_P1;HPM_P2
2021/10/15 00:01:17;;;;;;;157.97;114.70;;;14.20;99.90;;;;;;6197401;23;20406;-77
2021/10/15 00:03:46;;;;;;;196.17;130.63;;;14.20;99.90;;;;;;6197414;23;20399;-77
2021/10/15 00:06:15;;;;;;;191.47;116.33;;;14.10;99.90;;;;;;6196939;23;20950;-77
2021/10/15 00:08:43;;;;;;;203.93;138.77;;;14.10;99.90;;;;;;6160661;23;20435;-77
2021/10/15 00:11:11;;;;;;;26.60;24.30;;;14.10;99.90;;;;;;6196342;23;20407;-77
2021/10/15 00:13:40;;;;;;;444.40;157.87;;;14.20;99.90;;;;;;6160882;23;20906;-76
2021/10/15 00:16:08;;;;;;;54.13;48.13;;;14.20;99.90;;;;;;6161135;23;20423;-78
2021/10/15 00:18:36;;;;;;;144.90;107.27;;;14.20;99.90;;;;;;6187350;23;20431;-77
2021/10/15 00:21:06;;;;;;;225.13;169.70;;;14.20;99.90;;;;;;6188136;23;20407;-76
2021/10/15 00:23:34;;;;;;;188.77;147.17;;;14.10;99.90;;;;;;6196989;23;20558;-77
2021/10/15 00:26:04;;;;;;;207.73;136.37;;;14.10;99.90;;;;;;6160778;23;20434;-76
2021/10/15 00:28:33;;;;;;;312.40;190.43;;;14.10;99.90;;;;;;6160736;23;20475;-77
2021/10/15 00:31:01;;;;;;;179.57;142.23;;;14.10;99.90;;;;;;6197797;23;20482;-77
2021/10/15 00:33:32;;;;;;;363.00;193.03;;;14.10;99.90;;;;;;6196622;23;20824;-77
2021/10/15 00:36:00;;;;;;;390.90;217.33;;;14.10;99.90;;;;;;6187224;23;20466;-76
2021/10/15 00:38:30;;;;;;;268.87;185.03;;;14.10;99.90;;;;;;6187231;23;20535;-76
2021/10/15 00:40:58;;;;;;;256.17;167.70;;;14.10;99.90;;;;;;6186299;23;20386;-76
2021/10/15 00:43:26;;;;;;;285.50;198.13;;;14.10;99.90;;;;;;6160213;23;20768;-77
2021/10/15 00:45:54;;;;;;;312.13;197.47;;;14.00;99.90;;;;;;6160539;23;20451;-76
2021/10/15 00:48:22;;;;;;;235.20;168.43;;;14.00;99.90;;;;;;6160424;23;20914;-76
2021/10/15 00:50:51;;;;;;;244.33;157.23;;;14.00;99.90;;;;;;6160538;23;20922;-77
2021/10/15 00:53:20;;;;;;;26.42;24.00;;;14.00;99.90;;;;;;6159260;23;20507;-77
2021/10/15 00:55:50;;;;;;;46.40;41.60;;;14.00;99.90;;;;;;6160429;23;20643;-77
2021/10/15 00:58:18;;;;;;;92.38;63.65;;;14.00;99.90;;;;;;6160332;23;20453;-76
2021/10/15 01:00:46;;;;;;;165.30;90.67;;;14.00;99.90;;;;;;6160394;23;20173;-77
2021/10/15 01:03:14;;;;;;;83.53;69.60;;;14.00;99.90;;;;;;6197480;23;20427;-77
2021/10/15 01:05:42;;;;;;;99.83;84.20;;;14.00;99.90;;;;;;6160379;23;20420;-77
2021/10/15 01:08:11;;;;;;;128.10;94.60;;;14.00;99.90;;;;;;6187006;23;20439;-77
2021/10/15 01:10:40;;;;;;;77.87;65.27;;;13.90;99.90;;;;;;6160283;23;20969;-77
2021/10/15 01:13:10;;;;;;;153.03;119.33;;;14.00;99.90;;;;;;6160714;23;20401;-76
2021/10/15 01:15:38;;;;;;;216.53;137.50;;;13.90;99.90;;;;;;6160338;23;20474;-77
2021/10/15 01:18:11;;;;;;;103.37;92.60;;;13.90;99.90;;;;;;6160281;23;20760;-77
2021/10/15 01:20:42;;;;;;;107.33;97.50;;;13.90;99.90;;;;;;6161187;23;20736;-77
2021/10/15 01:23:10;;;;;;;63.67;55.93;;;13.90;99.90;;;;;;6159877;23;20538;-76
2021/10/15 01:25:38;;;;;;;80.87;64.73;;;13.90;99.90;;;;;;6160552;23;20502;-77
2021/10/15 01:28:06;;;;;;;69.83;59.77;;;13.90;99.90;;;;;;6196476;23;20430;-77
2021/10/15 01:30:34;;;;;;;102.63;79.60;;;13.90;99.90;;;;;;6186944;23;20407;-76
2021/10/15 01:33:02;;;;;;;142.33;101.67;;;13.90;99.90;;;;;;6196523;23;20404;-76
2021/10/15 01:35:30;;;;;;;36.75;33.15;;;13.90;99.90;;;;;;6159883;23;20417;-76
2021/10/15 01:38:00;;;;;;;401.90;137.07;;;13.90;99.90;;;;;;6159906;23;20646;-77
2021/10/15 01:40:28;;;;;;;70.63;63.00;;;13.90;99.90;;;;;;6159824;23;20435;-77
2021/10/15 01:42:56;;;;;;;83.23;73.47;;;13.90;99.90;;;;;;6196528;23;20435;-78
2021/10/15 01:45:26;;;;;;;113.53;88.07;;;13.90;99.90;;;;;;6186502;23;20411;-77
2021/10/15 01:47:55;;;;;;;146.33;105.50;;;13.90;99.90;;;;;;6160009;23;20474;-77
2021/10/15 01:50:25;;;;;;;127.67;110.13;;;13.90;99.90;;;;;;6159880;23;20419;-78
2021/10/15 01:52:53;;;;;;;91.07;71.73;;;13.90;99.90;;;;;;6159925;23;20415;-76
2021/10/15 01:55:25;;;;;;;257.07;160.83;;;13.90;99.90;;;;;;6196422;23;20394;-77
2021/10/15 01:57:53;;;;;;;179.00;113.67;;;13.90;99.90;;;;;;6160212;23;20855;-77
2021/10/15 02:00:25;;;;;;;158.80;104.87;;;13.90;99.90;;;;;;6159858;23;20439;-76
2021/10/15 02:02:53;;;;;;;242.13;144.60;;;13.90;99.90;;;;;;6160118;23;20466;-77
2021/10/15 02:05:24;;;;;;;191.50;123.33;;;13.90;99.90;;;;;;6186390;23;20417;-76
2021/10/15 02:07:53;;;;;;;208.13;131.93;;;13.80;99.90;;;;;;6159830;23;20420;-77
2021/10/15 02:10:23;;;;;;;252.47;139.43;;;13.80;99.90;;;;;;6159952;23;20419;-77
2021/10/15 02:12:52;;;;;;;251.13;157.07;;;13.80;99.90;;;;;;6186460;23;20380;-77
2021/10/15 02:15:23;;;;;;;334.10;231.37;;;13.80;99.90;;;;;;6159704;23;20476;-77
2021/10/15 02:17:52;;;;;;;47.70;35.90;;;13.90;99.90;;;;;;6159328;23;20408;-78
2021/10/15 02:20:22;;;;;;;258.40;168.40;;;13.90;99.90;;;;;;6159500;23;20160;-76
2021/10/15 02:22:52;;;;;;;583.43;279.37;;;13.90;99.90;;;;;;6159471;23;20470;-76
2021/10/15 02:25:23;;;;;;;18.33;16.63;;;13.90;99.90;;;;;;6158195;23;20415;-77
2021/10/15 02:27:52;;;;;;;82.77;62.40;;;13.90;99.90;;;;;;6185914;23;20169;-77
2021/10/15 02:30:20;;;;;;;103.33;83.23;;;13.90;99.90;;;;;;6159602;23;20514;-77
2021/10/15 02:32:49;;;;;;;534.70;253.60;;;13.90;99.90;;;;;;6185808;23;20374;-77
2021/10/15 02:35:18;;;;;;;401.67;216.33;;;13.90;99.90;;;;;;6186439;23;20416;-77
2021/10/15 02:37:47;;;;;;;382.27;217.93;;;13.90;99.90;;;;;;6185917;23;20491;-77
2021/10/15 02:40:16;;;;;;;363.90;248.87;;;13.90;99.90;;;;;;6159412;23;20467;-76
2021/10/15 02:42:47;;;;;;;505.50;260.43;;;13.90;99.90;;;;;;6159485;23;20419;-77
2021/10/15 02:45:15;;;;;;;413.00;248.63;;;13.90;99.90;;;;;;6159530;23;20435;-77
2021/10/15 02:47:43;;;;;;;275.10;165.77;;;13.90;99.90;;;;;;6159233;23;20426;-77
2021/10/15 02:50:11;;;;;;;347.93;197.10;;;13.80;99.90;;;;;;6159594;23;20506;-77
2021/10/15 02:52:40;;;;;;;248.17;137.90;;;13.80;99.90;;;;;;6159860;23;20423;-76
2021/10/15 02:55:08;;;;;;;295.03;160.60;;;13.80;99.90;;;;;;6196222;23;20556;-76
2021/10/15 02:57:36;;;;;;;370.53;194.97;;;13.80;99.90;;;;;;6195708;23;20396;-77
2021/10/15 03:00:08;;;;;;;260.73;147.30;;;13.80;99.90;;;;;;6159241;23;20440;-76
2021/10/15 03:02:36;;;;;;;20.70;18.60;;;13.80;99.90;;;;;;6158999;23;20422;-76
2021/10/15 03:05:05;;;;;;;389.10;137.53;;;13.90;99.90;;;;;;6158912;23;20493;-77
2021/10/15 03:07:35;;;;;;;20.40;18.50;;;13.90;99.90;;;;;;6194616;23;20458;-77
2021/10/15 03:10:05;;;;;;;148.43;79.97;;;13.90;99.90;;;;;;6159115;23;20196;-77
2021/10/15 03:12:33;;;;;;;45.73;41.17;;;13.90;99.90;;;;;;6159355;23;20450;-77
2021/10/15 03:15:01;;;;;;;58.73;51.93;;;13.80;99.90;;;;;;6159166;23;20490;-77
2021/10/15 03:17:31;;;;;;;107.80;92.20;;;13.80;99.90;;;;;;6159199;23;20414;-77
2021/10/15 03:19:59;;;;;;;108.10;92.63;;;13.80;99.90;;;;;;6159273;23;20441;-77
2021/10/15 03:22:27;;;;;;;130.97;87.30;;;13.80;99.90;;;;;;6159541;23;20510;-77
2021/10/15 03:24:56;;;;;;;163.27;106.47;;;13.70;99.90;;;;;;6159235;23;20410;-77
2021/10/15 03:27:24;;;;;;;158.40;102.13;;;13.70;99.90;;;;;;6159168;23;20472;-76
2021/10/15 03:29:52;;;;;;;119.90;98.47;;;13.70;99.90;;;;;;6195665;23;20438;-76
2021/10/15 03:32:22;;;;;;;141.83;104.47;;;13.70;99.90;;;;;;6185942;23;20792;-77
2021/10/15 03:34:51;;;;;;;101.97;82.07;;;13.70;99.90;;;;;;6195623;23;20478;-76
2021/10/15 03:37:20;;;;;;;110.67;89.50;;;13.70;99.90;;;;;;6159117;23;20899;-77
2021/10/15 03:39:48;;;;;;;134.13;91.33;;;13.70;99.90;;;;;;6158942;23;20452;-77
2021/10/15 03:42:17;;;;;;;279.87;113.53;;;13.70;99.90;;;;;;6159186;23;20506;-77
2021/10/15 03:44:46;;;;;;;21.60;19.60;;;13.70;99.90;;;;;;6158388;23;20443;-77
2021/10/15 03:47:14;;;;;;;201.20;79.10;;;13.70;99.90;;;;;;6159067;23;20176;-77
2021/10/15 03:49:42;;;;;;;42.53;34.33;;;13.70;99.90;;;;;;6158896;23;20819;-76
2021/10/15 03:52:12;;;;;;;54.27;48.33;;;13.70;99.90;;;;;;6195639;23;20395;-77
2021/10/15 03:54:40;;;;;;;67.13;54.77;;;13.70;99.90;;;;;;6159063;23;20426;-76
2021/10/15 03:57:08;;;;;;;48.57;44.53;;;13.70;99.90;;;;;;6185752;23;20411;-76
2021/10/15 03:59:36;;;;;;;147.77;85.87;;;13.70;99.90;;;;;;6159105;23;20775;-77
2021/10/15 04:02:04;;;;;;;78.63;62.90;;;13.70;99.90;;;;;;6159214;23;20494;-77
2021/10/15 04:04:33;;;;;;;123.23;88.87;;;13.70;99.90;;;;;;6159199;23;20530;-76
2021/10/15 04:07:01;;;;;;;68.00;59.07;;;13.60;99.90;;;;;;6159167;23;20415;-76
2021/10/15 04:09:30;;;;;;;71.60;64.63;;;13.60;99.90;;;;;;6195308;23;20423;-77
2021/10/15 04:11:58;;;;;;;139.33;97.40;;;13.60;99.90;;;;;;6195273;23;20398;-77
2021/10/15 04:14:26;;;;;;;100.07;80.20;;;13.60;99.90;;;;;;6159052;23;20962;-77
2021/10/15 04:16:54;;;;;;;190.47;96.53;;;13.60;99.90;;;;;;6187114;23;20439;-77
2021/10/15 04:19:23;;;;;;;101.73;85.37;;;13.60;99.90;;;;;;6160604;23;20933;-77
2021/10/15 04:21:51;;;;;;;85.00;68.40;;;13.60;99.90;;;;;;6160949;23;20965;-76
2021/10/15 04:24:19;;;;;;;77.83;54.27;;;13.60;99.90;;;;;;6160806;23;21001;-76
2021/10/15 04:26:49;;;;;;;95.03;73.47;;;13.60;99.90;;;;;;6160738;23;20502;-76
2021/10/15 04:29:17;;;;;;;62.77;49.70;;;13.60;99.90;;;;;;6160693;23;20528;-77
2021/10/15 04:31:45;;;;;;;85.23;67.63;;;13.60;99.90;;;;;;6197248;23;20478;-76
2021/10/15 04:34:13;;;;;;;21.45;19.45;;;13.60;99.90;;;;;;6195960;23;20395;-77
2021/10/15 04:36:41;;;;;;;341.47;113.33;;;13.60;99.90;;;;;;6160894;23;20169;-77
2021/10/15 04:39:09;;;;;;;139.50;80.60;;;13.60;99.90;;;;;;6194759;23;20510;-77
2021/10/15 04:41:37;;;;;;;63.17;49.67;;;13.60;99.90;;;;;;6160709;23;20884;-77
2021/10/15 04:44:07;;;;;;;95.53;58.40;;;13.60;99.90;;;;;;6160283;23;20470;-77
2021/10/15 04:46:35;;;;;;;83.07;62.67;;;13.60;99.90;;;;;;6196891;23;20667;-77
2021/10/15 04:49:04;;;;;;;85.00;63.20;;;13.60;99.90;;;;;;6160520;23;21029;-76
2021/10/15 04:51:32;;;;;;;93.00;69.87;;;13.50;99.90;;;;;;6187066;23;20972;-76
2021/10/15 04:54:00;;;;;;;76.77;64.43;;;13.50;99.90;;;;;;6187281;23;20419;-76
2021/10/15 04:56:29;;;;;;;57.10;49.47;;;13.50;99.90;;;;;;6186678;23;20414;-76
2021/10/15 04:58:57;;;;;;;73.07;46.83;;;13.50;99.90;;;;;;6196858;23;20506;-77
2021/10/15 05:01:27;;;;;;;60.60;54.60;;;13.50;99.90;;;;;;6187235;23;20407;-77
2021/10/15 05:03:55;;;;;;;46.63;42.00;;;13.50;99.90;;;;;;6160398;23;20423;-77
2021/10/15 05:06:23;;;;;;;172.57;101.00;;;13.50;99.90;;;;;;6196052;23;20402;-77
2021/10/15 05:09:02;;;;;;;58.47;48.30;;;13.50;99.90;;;;;;6160316;23;21027;-78
2021/10/15 05:11:31;;;;;;;19.02;17.33;;;13.40;99.90;;;;;;6159594;23;20426;-77
2021/10/15 05:14:01;;;;;;;311.13;99.57;;;13.50;99.90;;;;;;6160312;23;20190;-77
2021/10/15 05:16:30;;;;;;;121.68;55.50;;;13.60;99.90;;;;;;6159816;23;20427;-76
2021/10/15 05:18:58;;;;;;;102.50;60.27;;;13.60;99.90;;;;;;6196614;23;20188;-76
2021/10/15 05:21:26;;;;;;;42.67;38.67;;;13.50;99.90;;;;;;6186836;23;20897;-76
2021/10/15 05:23:55;;;;;;;70.73;41.87;;;13.50;99.90;;;;;;6186843;23;20407;-76
2021/10/15 05:26:23;;;;;;;41.97;34.00;;;13.50;99.90;;;;;;6160103;23;20415;-77
2021/10/15 05:28:51;;;;;;;82.33;60.47;;;13.50;99.90;;;;;;6160211;23;20446;-77
2021/10/15 05:31:19;;;;;;;49.33;44.20;;;13.50;99.90;;;;;;6160131;23;20415;-78
2021/10/15 05:33:49;;;;;;;75.20;54.73;;;13.50;99.90;;;;;;6160102;23;20423;-77
2021/10/15 05:36:17;;;;;;;54.13;48.53;;;13.50;99.90;;;;;;6160047;23;20416;-77
2021/10/15 05:38:45;;;;;;;81.13;62.57;;;13.50;99.90;;;;;;6186719;23;20441;-77
2021/10/15 05:41:14;;;;;;;62.60;55.03;;;13.40;99.90;;;;;;6159988;23;20427;-77
2021/10/15 05:43:42;;;;;;;59.27;49.37;;;13.40;99.90;;;;;;6160275;23;20543;-76
2021/10/15 05:46:10;;;;;;;72.40;49.53;;;13.40;99.90;;;;;;6160079;23;20440;-77
2021/10/15 05:48:38;;;;;;;56.63;42.47;;;13.40;99.90;;;;;;6187238;23;20438;-77
2021/10/15 05:51:11;;;;;;;52.10;42.70;;;13.40;99.90;;;;;;6160174;23;20478;-77
2021/10/15 05:53:40;;;;;;;29.65;26.52;;;13.40;99.90;;;;;;6160070;23;20490;-76
2021/10/15 05:56:34;;;;;;;82.53;49.43;;;13.50;99.90;;;;;;6159973;23;20194;-76
2021/10/15 05:59:03;;;;;;;88.83;59.60;;;13.50;99.90;;;;;;6196372;23;20427;-77
2021/10/15 06:01:33;;;;;;;98.73;61.80;;;13.40;99.90;;;;;;6160342;23;20502;-76
2021/10/15 06:04:33;;;;;;;60.87;47.50;;;13.40;99.90;;;;;;6160665;23;20404;-76
2021/10/15 06:15:24;;;;;;;33.90;31.00;;;13.50;99.90;;;;;;6170026;23;20418;-76
2021/10/15 06:17:53;;;;;;;86.60;72.37;;;13.50;99.90;;;;;;6160336;23;20854;-76
2021/10/15 06:20:21;;;;;;;155.13;91.83;;;13.40;99.90;;;;;;6160621;23;20403;-77
2021/10/15 06:22:51;;;;;;;71.30;51.43;;;13.50;99.90;;;;;;6160573;23;20429;-79
2021/10/15 06:25:19;;;;;;;44.97;38.83;;;13.50;99.90;;;;;;6160295;23;20467;-77
2021/10/15 06:27:48;;;;;;;66.60;59.33;;;13.50;99.90;;;;;;6160293;23;20433;-77
2021/10/15 06:30:16;;;;;;;287.47;101.73;;;13.40;99.90;;;;;;6186923;23;20422;-76
2021/10/15 06:32:45;;;;;;;311.10;119.27;;;13.50;99.90;;;;;;6160620;23;20478;-77
2021/10/15 06:35:13;;;;;;;220.53;99.33;;;13.40;99.90;;;;;;6160468;23;20411;-77
2021/10/15 06:37:41;;;;;;;97.38;42.38;;;13.40;99.90;;;;;;6160020;23;20426;-77
2021/10/15 06:40:12;;;;;;;311.00;94.37;;;13.40;99.90;;;;;;6160578;23;20184;-78
2021/10/15 06:42:40;;;;;;;241.90;82.43;;;13.40;99.90;;;;;;6160335;23;20458;-76
2021/10/15 06:45:10;;;;;;;271.00;85.73;;;13.40;99.90;;;;;;6160247;23;20436;-76
2021/10/15 06:47:38;;;;;;;249.63;88.03;;;13.40;99.90;;;;;;6160615;23;20978;-76
2021/10/15 06:50:07;;;;;;;256.50;81.50;;;13.40;99.90;;;;;;6160167;23;20452;-75
2021/10/15 06:52:46;;;;;;;212.93;80.53;;;13.30;99.90;;;;;;6187344;23;20403;-76
2021/10/15 06:55:16;;;;;;;178.40;69.13;;;13.30;99.90;;;;;;6196334;23;20831;-77
2021/10/15 06:57:46;;;;;;;268.80;80.27;;;13.30;99.90;;;;;;6196374;23;20439;-77
2021/10/15 07:00:15;;;;;;;167.80;68.90;;;13.20;99.90;;;;;;6196549;23;20460;-77
2021/10/15 07:02:44;;;;;;;238.50;64.93;;;13.20;99.90;;;;;;6160112;23;20511;-75
2021/10/15 07:05:13;;;;;;;188.20;50.77;;;13.20;99.90;;;;;;6196896;23;20477;-75
2021/10/15 07:07:41;;;;;;;225.50;63.13;;;13.10;99.90;;;;;;6196199;23;20482;-75
2021/10/15 07:10:10;;;;;;;201.80;50.10;;;13.10;99.90;;;;;;6159782;23;20498;-76
2021/10/15 07:12:41;;;;;;;174.37;54.57;;;13.00;99.90;;;;;;6160191;23;20755;-75
2021/10/15 07:15:11;;;;;;;213.87;62.90;;;12.90;99.90;;;;;;6196339;23;20407;-75
2021/10/15 07:17:39;;;;;;;151.27;38.70;;;12.80;99.90;;;;;;6186699;23;20482;-75
2021/10/15 07:20:09;;;;;;;216.90;68.13;;;12.70;99.90;;;;;;6160004;23;21021;-75
2021/10/15 07:22:37;;;;;;;5.57;1.40;;;12.60;99.90;;;;;;6158397;23;20815;-75
2021/10/15 07:25:07;;;;;;;234.63;50.77;;;12.70;99.90;;;;;;6160836;23;20172;-74
2021/10/15 07:27:35;;;;;;;4.72;1.38;;;12.60;99.90;;;;;;6195457;23;20458;-74
2021/10/15 07:30:06;;;;;;;187.43;45.00;;;12.60;99.90;;;;;;6196035;23;20184;-75
2021/10/15 07:32:35;;;;;;;151.23;40.70;;;12.50;99.90;;;;;;6159970;23;20470;-74
2021/10/15 07:35:05;;;;;;;168.83;43.63;;;12.50;99.90;;;;;;6186368;23;20403;-75
2021/10/15 07:37:33;;;;;;;148.20;41.47;;;12.40;99.90;;;;;;6196714;23;20419;-74
2021/10/15 07:40:01;;;;;;;254.37;49.17;;;12.30;99.90;;;;;;6186149;23;20431;-75
2021/10/15 07:42:29;;;;;;;178.87;53.10;;;12.30;99.90;;;;;;6196760;23;20790;-75
2021/10/15 07:44:57;;;;;;;272.30;47.10;;;12.30;99.90;;;;;;6159761;23;20419;-74
2021/10/15 07:47:27;;;;;;;219.33;35.57;;;12.20;99.90;;;;;;6186045;23;20442;-75
2021/10/15 07:49:55;;;;;;;247.63;49.47;;;12.10;99.90;;;;;;6159992;23;20435;-75
2021/10/15 07:52:23;;;;;;;182.00;54.83;;;12.10;99.90;;;;;;6197793;23;20739;-75
2021/10/15 07:54:51;;;;;;;197.87;41.60;;;12.10;99.90;;;;;;6162233;23;20415;-74
2021/10/15 07:57:20;;;;;;;240.27;48.93;;;12.10;99.90;;;;;;6161517;23;20419;-74
2021/10/15 07:59:48;;;;;;;134.13;45.50;;;12.10;99.90;;;;;;6161570;23;20543;-75
2021/10/15 08:02:16;;;;;;;239.17;53.93;;;12.10;99.90;;;;;;6161777;23;20423;-75
2021/10/15 08:04:47;;;;;;;177.93;40.60;;;12.00;99.90;;;;;;6197803;23;20454;-75
2021/10/15 08:07:15;;;;;;;172.30;40.80;;;12.00;99.90;;;;;;6161739;23;20436;-75
2021/10/15 08:09:43;;;;;;;247.40;46.40;;;12.00;99.90;;;;;;6161382;23;20435;-74
2021/10/15 08:12:11;;;;;;;5.85;1.90;;;11.90;99.90;;;;;;6160517;23;20407;-75
2021/10/15 08:14:39;;;;;;;143.57;45.63;;;12.00;99.90;;;;;;6160959;23;20259;-75
2021/10/15 08:17:07;;;;;;;204.20;47.77;;;12.00;99.90;;;;;;6161086;23;20418;-75
2021/10/15 08:19:38;;;;;;;193.57;44.60;;;12.00;99.90;;;;;;6197545;23;20418;-75
2021/10/15 08:22:08;;;;;;;214.17;53.33;;;11.90;99.90;;;;;;6162317;23;20420;-75
2021/10/15 08:24:37;;;;;;;166.40;50.17;;;11.90;99.90;;;;;;6187653;23;20415;-75
2021/10/15 08:27:06;;;;;;;153.60;38.77;;;11.90;99.90;;;;;;6160966;23;20435;-75
2021/10/15 08:29:37;;;;;;;296.93;69.03;;;11.90;99.90;;;;;;6197118;23;20415;-74
2021/10/15 08:32:06;;;;;;;204.00;47.90;;;11.90;99.90;;;;;;6160791;23;20408;-75
2021/10/15 08:34:36;;;;;;;268.23;55.33;;;11.90;99.90;;;;;;6197152;23;20792;-74
2021/10/15 08:37:04;;;;;;;184.83;39.57;;;11.90;99.90;;;;;;6160722;23;20422;-75
2021/10/15 08:39:34;;;;;;;181.07;46.03;;;11.90;99.90;;;;;;6160498;23;20486;-75
2021/10/15 08:42:02;;;;;;;229.17;45.83;;;11.90;99.90;;;;;;6197756;23;20384;-75
2021/10/15 08:44:35;;;;;;;235.17;49.43;;;11.90;99.90;;;;;;6197359;23;20727;-75
2021/10/15 08:47:03;;;;;;;182.00;43.30;;;11.80;99.90;;;;;;6197996;23;20515;-75
2021/10/15 08:49:52;;;;;;;90.70;18.33;;;11.80;99.90;;;;;;6159844;23;20408;-75
2021/10/15 08:52:20;;;;;;;252.50;56.67;;;11.80;99.90;;;;;;6160613;23;20179;-75
2021/10/15 08:54:50;;;;;;;264.63;57.37;;;11.80;99.90;;;;;;6196845;23;20427;-75
2021/10/15 08:57:18;;;;;;;4.75;1.77;;;11.80;99.90;;;;;;6159158;23;20486;-75
2021/10/15 08:59:48;;;;;;;238.97;51.10;;;11.90;99.90;;;;;;6160393;23;20287;-75
2021/10/15 09:02:18;;;;;;;205.43;51.80;;;11.90;99.90;;;;;;6186338;23;20581;-75
2021/10/15 09:04:50;;;;;;;200.20;53.13;;;11.80;99.90;;;;;;6197285;23;20376;-75
2021/10/15 09:07:21;;;;;;;186.33;40.00;;;11.80;99.90;;;;;;6197111;23;20510;-75
2021/10/15 09:10:07;;;;;;;174.27;45.27;;;11.70;99.90;;;;;;6160387;23;20530;-75
2021/10/15 09:12:42;;;;;;;223.67;61.43;;;11.80;99.90;;;;;;6160727;23;20818;-75
2021/10/15 09:15:11;;;;;;;230.73;53.13;;;11.80;99.90;;;;;;6160335;23;20747;-75
2021/10/15 09:17:49;;;;;;;243.47;51.70;;;11.80;99.90;;;;;;6160318;23;20410;-75
2021/10/15 09:20:27;;;;;;;155.53;38.67;;;11.90;99.90;;;;;;6197457;23;20450;-75
2021/10/15 09:23:09;;;;;;;159.43;37.60;;;12.00;99.90;;;;;;6160252;23;20419;-75
2021/10/15 09:25:41;;;;;;;126.77;34.10;;;12.10;99.90;;;;;;6160228;23;20514;-75
2021/10/15 09:28:17;;;;;;;186.47;51.43;;;12.10;99.90;;;;;;6160070;23;20550;-75
2021/10/15 09:30:48;;;;;;;184.33;48.10;;;12.20;99.90;;;;;;6160261;23;20409;-75
2021/10/15 09:33:19;;;;;;;196.67;53.33;;;12.30;99.90;;;;;;6160235;23;20502;-75
2021/10/15 09:35:47;;;;;;;6.15;2.10;;;12.30;99.90;;;;;;6159473;23;20419;-75
2021/10/15 09:38:16;;;;;;;210.30;53.53;;;12.40;99.90;;;;;;6160804;23;20251;-75
2021/10/15 09:40:48;;;;;;;83.47;18.23;;;12.40;99.90;;;;;;6159657;23;20887;-75
2021/10/15 09:43:17;;;;;;;196.30;51.10;;;12.50;99.90;;;;;;6160181;23;20164;-75
2021/10/15 09:45:47;;;;;;;198.00;49.77;;;12.50;99.90;;;;;;6186992;23;20418;-75
2021/10/15 09:48:22;;;;;;;216.93;52.97;;;12.50;99.90;;;;;;6160145;23;20451;-75
2021/10/15 09:51:10;;;;;;;219.50;53.90;;;12.50;99.90;;;;;;6196812;23;20470;-75
2021/10/15 09:53:39;;;;;;;205.83;48.10;;;12.50;99.90;;;;;;6186392;23;20463;-74
2021/10/15 09:56:09;;;;;;;251.23;63.17;;;12.60;99.90;;;;;;6196299;23;20482;-75
2021/10/15 09:58:37;;;;;;;183.73;50.33;;;12.60;99.90;;;;;;6186566;23;20435;-75
2021/10/15 10:01:05;;;;;;;261.30;59.07;;;12.60;99.90;;;;;;6196483;23;20410;-74
2021/10/15 10:03:34;;;;;;;232.07;64.70;;;12.70;99.90;;;;;;6159918;23;20447;-74
2021/10/15 10:06:02;;;;;;;287.57;67.77;;;12.70;99.90;;;;;;6159726;23;20502;-74
2021/10/15 10:08:30;;;;;;;136.73;64.90;;;12.70;99.90;;;;;;6196116;23;20918;-75
2021/10/15 10:11:00;;;;;;;188.40;73.17;;;12.70;99.90;;;;;;6196538;23;20403;-74
2021/10/15 10:13:31;;;;;;;188.00;62.23;;;12.70;99.90;;;;;;6160832;23;20455;-75
2021/10/15 10:15:59;;;;;;;214.90;77.33;;;12.80;99.90;;;;;;6159772;23;20400;-75
2021/10/15 10:18:31;;;;;;;251.23;67.07;;;12.80;99.90;;;;;;6159646;23;20518;-75
2021/10/15 10:21:04;;;;;;;9.88;2.33;;;12.80;99.90;;;;;;6195910;23;20391;-74
2021/10/15 10:23:38;;;;;;;285.60;62.17;;;12.90;99.90;;;;;;6159867;23;20512;-74
2021/10/15 10:26:10;;;;;;;115.70;30.23;;;13.00;99.90;;;;;;6159388;23;20446;-75
2021/10/15 10:28:40;;;;;;;293.80;92.37;;;13.00;99.90;;;;;;6186177;23;20210;-75
2021/10/15 10:31:21;;;;;;;41.30;28.77;;;13.10;99.90;;;;;;6196762;23;20395;-75
2021/10/15 10:33:54;;;;;;;115.67;51.23;;;13.10;99.90;;;;;;6159738;23;20400;-75
2021/10/15 10:36:22;;;;;;;96.93;59.00;;;13.20;99.90;;;;;;6159445;23;20894;-75
2021/10/15 10:38:50;;;;;;;403.77;194.03;;;13.20;99.90;;;;;;6194800;23;20415;-75
2021/10/15 10:41:24;;;;;;;440.03;189.53;;;13.20;99.90;;;;;;6159620;23;20778;-74
2021/10/15 10:44:13;;;;;;;102.30;71.20;;;13.30;99.90;;;;;;6159555;23;20415;-75
2021/10/15 10:46:43;;;;;;;64.83;45.87;;;13.30;99.90;;;;;;6159502;23;20402;-75
2021/10/15 10:49:19;;;;;;;263.90;170.90;;;13.30;99.90;;;;;;6159412;23;20458;-75
2021/10/15 10:52:11;;;;;;;277.70;172.03;;;13.30;99.90;;;;;;6159813;23;20419;-75
2021/10/15 10:54:41;;;;;;;614.03;278.07;;;13.40;99.90;;;;;;6195832;23;20408;-76
2021/10/15 10:57:24;;;;;;;817.50;335.80;;;13.50;99.90;;;;;;6159608;23;20408;-76
2021/10/15 11:00:16;;;;;;;1853.63;755.07;;;13.50;99.90;;;;;;6185553;23;20930;-76
2021/10/15 11:02:48;;;;;;;1999.90;806.63;;;13.60;99.90;;;;;;6196460;23;20422;-76
2021/10/15 11:05:34;;;;;;;17.23;12.65;;;13.70;99.90;;;;;;6158797;23;20415;-76
2021/10/15 11:08:32;;;;;;;1896.17;783.97;;;13.80;99.90;;;;;;6195600;23;20215;-76
2021/10/15 11:11:41;;;;;;;1999.90;999.90;;;13.90;99.90;;;;;;6196408;23;20459;-76
2021/10/15 11:14:20;;;;;;;1999.90;999.90;;;13.90;99.90;;;;;;6159455;23;20874;-76
2021/10/15 11:16:50;;;;;;;1999.90;999.90;;;13.90;99.90;;;;;;6159901;23;20887;-76
2021/10/15 11:19:22;;;;;;;1999.90;999.90;;;13.90;99.90;;;;;;6159348;23;20841;-75
2021/10/15 11:22:01;;;;;;;1999.90;976.07;;;13.80;99.90;;;;;;6196038;23;20451;-74
2021/10/15 11:24:29;;;;;;;1999.90;999.90;;;13.70;99.90;;;;;;6159057;23;20450;-74
2021/10/15 11:26:58;;;;;;;1999.90;999.90;;;13.40;99.90;;;;;;6161351;23;20522;-75
2021/10/15 11:29:26;;;;;;;1999.90;999.90;;;13.20;99.90;;;;;;6161207;23;20443;-74
2021/10/15 11:31:57;;;;;;;1999.90;990.80;;;13.10;99.90;;;;;;6197626;23;20410;-74
2021/10/15 11:34:25;;;;;;;1999.90;810.40;;;12.90;99.90;;;;;;6198363;23;20399;-75
2021/10/15 11:37:04;;;;;;;1611.53;562.27;;;12.90;99.90;;;;;;6161195;23;20420;-74
2021/10/15 11:39:32;;;;;;;823.03;372.57;;;12.80;99.90;;;;;;6197583;23;20465;-75
2021/10/15 11:42:00;;;;;;;318.23;125.80;;;12.80;99.90;;;;;;6197563;23;20490;-75
2021/10/15 11:44:33;;;;;;;89.93;54.97;;;12.80;99.90;;;;;;6161090;23;20419;-75
2021/10/15 11:47:03;;;;;;;314.60;112.07;;;12.80;99.90;;;;;;6198206;23;20415;-74
2021/10/15 11:49:38;;;;;;;26.50;14.65;;;12.80;99.90;;;;;;6160314;23;20800;-74
2021/10/15 11:52:06;;;;;;;102.67;78.00;;;12.90;99.90;;;;;;6198471;23;20636;-74
2021/10/15 11:54:34;;;;;;;50.10;43.35;;;12.90;99.90;;;;;;6161072;23;20457;-75
2021/10/15 11:57:05;;;;;;;1581.90;584.40;;;13.00;99.90;;;;;;6197872;23;20514;-75
2021/10/15 11:59:33;;;;;;;1190.60;514.10;;;13.00;99.90;;;;;;6197447;23;20751;-75
2021/10/15 12:02:05;;;;;;;1886.47;718.70;;;13.00;99.90;;;;;;6197429;23;20875;-75
2021/10/15 12:04:34;;;;;;;1381.27;618.37;;;13.10;99.90;;;;;;6187439;23;20889;-75
2021/10/15 12:07:02;;;;;;;1637.57;609.70;;;13.20;99.90;;;;;;6160938;23;20419;-75
2021/10/15 12:09:30;;;;;;;1999.90;957.20;;;13.20;99.90;;;;;;6160745;23;20453;-76
2021/10/15 12:12:06;;;;;;;1999.90;999.90;;;13.30;99.90;;;;;;6160900;23;20813;-75
2021/10/15 12:14:36;;;;;;;1999.90;999.90;;;13.40;99.90;;;;;;6161070;23;20457;-76
2021/10/15 12:17:08;;;;;;;1999.90;938.83;;;13.40;99.90;;;;;;6197264;23;20438;-75
2021/10/15 12:19:37;;;;;;;1999.90;757.23;;;13.50;99.90;;;;;;6197112;23;20886;-76
2021/10/15 12:22:09;;;;;;;1319.83;225.03;;;13.60;99.90;;;;;;6197184;23;20775;-75
2021/10/15 12:24:40;;;;;;;1529.17;470.90;;;13.70;99.90;;;;;;6160737;23;20412;-78
2021/10/15 12:27:11;;;;;;;1999.90;516.07;;;13.70;99.90;;;;;;6160974;23;20470;-75
2021/10/15 12:29:42;;;;;;;1999.90;999.90;;;13.80;99.90;;;;;;6160870;23;20478;-75
2021/10/15 12:32:14;;;;;;;1999.90;999.90;;;13.90;99.90;;;;;;6160879;23;20404;-75
2021/10/15 12:34:57;;;;;;;1999.90;999.90;;;13.90;99.90;;;;;;6159127;23;20506;-75
2021/10/15 12:37:31;;;;;;;1886.67;389.87;;;14.00;99.90;;;;;;6160362;23;20188;-75
2021/10/15 12:40:21;;;;;;;1999.90;858.78;;;14.00;99.90;;;;;;6186065;23;20411;-76